createdAt,value
2022-12-26T00:00:30.226Z,4.60
2022-12-26T00:02:57.057Z,5.47
2022-12-26T00:05:24.047Z,8.00
2022-12-26T00:07:50.789Z,6.82
2022-12-26T00:10:17.431Z,8.55
2022-12-26T00:12:44.325Z,7.78
2022-12-26T00:15:11.400Z,8.43
2022-12-26T00:17:38.191Z,8.25
2022-12-26T00:20:05.456Z,7.38
2022-12-26T00:22:32.211Z,4.57
2022-12-26T00:24:58.964Z,7.40
2022-12-26T00:27:25.735Z,8.77
2022-12-26T00:29:52.451Z,6.65
2022-12-26T00:32:19.103Z,7.20
2022-12-26T00:34:45.910Z,9.90
2022-12-26T00:37:12.558Z,9.18
2022-12-26T00:39:39.196Z,11.30
2022-12-26T00:42:05.882Z,5.50
2022-12-26T00:44:32.561Z,5.75
2022-12-26T00:46:59.354Z,6.40
2022-12-26T00:49:26.208Z,6.22
2022-12-26T00:51:52.921Z,8.25
2022-12-26T00:54:19.564Z,6.18
2022-12-26T00:56:46.438Z,7.88
2022-12-26T00:59:13.101Z,5.22
2022-12-26T01:01:40.005Z,2.92
2022-12-26T01:04:06.822Z,6.90
2022-12-26T01:06:33.507Z,5.60
2022-12-26T01:09:00.279Z,8.25
2022-12-26T01:11:42.403Z,6.90
2022-12-26T01:14:17.877Z,8.70
2022-12-26T01:16:46.670Z,7.95
2022-12-26T01:19:14.311Z,7.10
2022-12-26T01:21:43.131Z,5.68
2022-12-26T01:24:10.369Z,6.28
2022-12-26T01:26:37.069Z,3.63
2022-12-26T01:29:03.732Z,7.70
2022-12-26T01:31:30.783Z,8.20
2022-12-26T01:33:57.481Z,6.00
2022-12-26T01:36:24.210Z,7.68
2022-12-26T01:38:50.964Z,7.82
2022-12-26T01:41:17.784Z,4.47
2022-12-26T01:44:04.873Z,3.83
2022-12-26T01:46:38.286Z,8.75
2022-12-26T01:49:13.376Z,3.78
2022-12-26T01:51:43.744Z,6.15
2022-12-26T01:54:37.758Z,8.32
2022-12-26T01:57:03.265Z,5.85
2022-12-26T01:59:32.963Z,3.40
2022-12-26T02:02:01.154Z,4.05
2022-12-26T02:04:55.761Z,4.97
2022-12-26T02:07:24.548Z,4.18
2022-12-26T02:09:51.403Z,5.07
2022-12-26T02:12:37.440Z,4.10
2022-12-26T02:15:10.541Z,2.55
2022-12-26T02:17:38.420Z,4.10
2022-12-26T02:20:24.859Z,8.65
2022-12-26T02:23:09.667Z,7.93
2022-12-26T02:26:08.321Z,6.70
2022-12-26T02:28:37.888Z,3.88
2022-12-26T02:31:32.482Z,7.85
2022-12-26T02:34:34.791Z,5.90
2022-12-26T02:37:23.656Z,5.45
2022-12-26T02:40:06.653Z,10.05
2022-12-26T02:42:33.249Z,5.65
2022-12-26T02:45:51.937Z,5.38
2022-12-26T02:48:30.364Z,6.35
2022-12-26T02:51:27.989Z,4.60
2022-12-26T02:54:40.904Z,4.88
2022-12-26T02:57:33.302Z,6.38
2022-12-26T03:00:27.031Z,8.45
2022-12-26T03:03:26.377Z,8.43
2022-12-26T03:06:18.624Z,3.70
2022-12-26T03:09:09.145Z,9.63
2022-12-26T03:12:00.428Z,6.22
2022-12-26T03:14:32.368Z,4.95
2022-12-26T03:17:22.141Z,9.68
2022-12-26T03:20:09.120Z,9.20
2022-12-26T03:22:49.856Z,6.22
2022-12-26T03:25:43.599Z,6.10
2022-12-26T03:28:10.293Z,4.30
2022-12-26T03:30:49.973Z,7.90
2022-12-26T03:33:47.540Z,9.73
2022-12-26T03:36:34.511Z,5.88
2022-12-26T03:40:13.562Z,6.28
2022-12-26T03:43:24.408Z,6.53
2022-12-26T03:46:41.930Z,4.18
2022-12-26T03:49:40.703Z,6.55
2022-12-26T03:52:47.763Z,5.65
2022-12-26T03:56:08.589Z,5.72
2022-12-26T03:58:57.202Z,4.10
2022-12-26T04:01:48.141Z,5.53
2022-12-26T04:04:35.351Z,4.85
2022-12-26T04:07:56.127Z,7.03
2022-12-26T04:10:55.518Z,5.40
2022-12-26T04:13:50.088Z,5.05
2022-12-26T04:17:05.379Z,6.65
2022-12-26T04:20:10.209Z,4.18
2022-12-26T04:23:09.036Z,11.35
2022-12-26T04:26:03.263Z,8.40
2022-12-26T04:28:48.539Z,7.10
2022-12-26T04:32:12.832Z,3.53
2022-12-26T04:35:07.897Z,3.78
2022-12-26T04:37:58.840Z,7.95
2022-12-26T04:40:49.004Z,3.85
2022-12-26T04:43:49.904Z,5.18
2022-12-26T04:46:20.722Z,11.95
2022-12-26T04:49:09.109Z,5.53
2022-12-26T04:51:36.515Z,3.97
2022-12-26T04:54:04.029Z,5.32
2022-12-26T04:56:30.837Z,4.85
2022-12-26T04:58:57.615Z,10.63
2022-12-26T05:01:42.874Z,6.30
2022-12-26T05:04:36.037Z,4.90
2022-12-26T05:07:24.347Z,5.28
2022-12-26T05:09:53.927Z,8.75
2022-12-26T05:12:21.518Z,3.85
2022-12-26T05:14:48.280Z,4.10
2022-12-26T05:17:33.374Z,5.43
2022-12-26T05:20:18.665Z,7.55
2022-12-26T05:23:05.131Z,7.32
2022-12-26T05:26:00.626Z,4.63
2022-12-26T05:28:42.787Z,5.35
2022-12-26T05:31:14.763Z,6.38
2022-12-26T05:34:00.642Z,5.97
2022-12-26T05:36:36.430Z,3.63
2022-12-26T05:39:04.167Z,4.80
2022-12-26T05:41:31.029Z,2.38
2022-12-26T05:43:57.764Z,4.32
2022-12-26T05:46:24.481Z,5.47
2022-12-26T05:48:51.166Z,8.15
2022-12-26T05:51:17.876Z,4.53
2022-12-26T05:53:44.543Z,3.75
2022-12-26T05:56:13.823Z,4.85
2022-12-26T05:58:42.128Z,3.72
2022-12-26T06:01:10.668Z,2.53
2022-12-26T06:03:38.689Z,3.38
2022-12-26T06:06:06.540Z,6.28
2022-12-26T06:08:33.503Z,4.20
2022-12-26T06:11:03.628Z,5.80
2022-12-26T06:13:30.633Z,6.57
2022-12-26T06:15:58.933Z,3.83
2022-12-26T06:18:26.444Z,2.45
2022-12-26T06:20:53.253Z,2.47
2022-12-26T06:23:19.885Z,1.92
2022-12-26T06:25:54.084Z,5.00
2022-12-26T06:28:20.728Z,3.65
2022-12-26T06:30:47.349Z,3.72
2022-12-26T06:33:14.067Z,3.00
2022-12-26T06:35:40.879Z,2.17
2022-12-26T06:38:07.524Z,4.57
2022-12-26T06:40:34.233Z,3.80
2022-12-26T06:43:00.871Z,5.75
2022-12-26T06:45:27.503Z,5.13
2022-12-26T06:47:54.196Z,3.35
2022-12-26T06:50:23.156Z,2.15
2022-12-26T06:52:49.838Z,3.60
2022-12-26T06:55:16.684Z,2.95
2022-12-26T06:57:43.490Z,5.07
2022-12-26T07:00:11.092Z,4.82
2022-12-26T07:02:37.899Z,2.95
2022-12-26T07:05:05.142Z,3.08
2022-12-26T07:07:31.783Z,2.47
2022-12-26T07:09:58.521Z,6.82
2022-12-26T07:12:25.157Z,2.72
2022-12-26T07:14:53.425Z,6.60
2022-12-26T07:17:22.232Z,3.72
2022-12-26T07:19:48.877Z,2.42
2022-12-26T07:22:15.588Z,3.05
2022-12-26T07:24:42.242Z,4.65
2022-12-26T07:27:08.882Z,2.70
2022-12-26T07:29:36.149Z,3.33
2022-12-26T07:32:03.097Z,4.40
2022-12-26T07:34:31.798Z,4.10
2022-12-26T07:36:58.916Z,2.30
2022-12-26T07:39:25.609Z,3.67
2022-12-26T07:41:57.912Z,2.45
2022-12-26T07:44:26.226Z,3.15
2022-12-26T07:46:52.928Z,4.95
2022-12-26T07:49:19.697Z,3.97
2022-12-26T07:51:46.369Z,5.95
2022-12-26T07:54:13.376Z,5.75
2022-12-26T07:56:42.124Z,6.65
2022-12-26T07:59:14.899Z,5.22
2022-12-26T08:01:43.218Z,6.82
2022-12-26T08:04:12.144Z,1.92
2022-12-26T08:06:39.140Z,3.45
2022-12-26T08:09:06.306Z,3.10
2022-12-26T08:11:35.254Z,7.03
2022-12-26T08:14:02.543Z,5.80
2022-12-26T08:16:29.664Z,4.97
2022-12-26T08:18:56.550Z,3.08
2022-12-26T08:21:23.557Z,5.43
2022-12-26T08:23:50.461Z,2.78
2022-12-26T08:26:22.939Z,2.72
2022-12-26T08:28:52.073Z,8.18
2022-12-26T08:31:20.254Z,3.60
2022-12-26T08:33:47.322Z,4.47
2022-12-26T08:36:17.340Z,4.47
2022-12-26T08:38:44.744Z,4.80
2022-12-26T08:41:12.145Z,5.72
2022-12-26T08:44:25.272Z,3.65
2022-12-26T08:46:25.797Z,2.50
2022-12-26T08:48:52.712Z,8.95
2022-12-26T08:51:22.256Z,1.98
2022-12-26T08:53:50.281Z,5.30
2022-12-26T08:56:24.307Z,4.85
2022-12-26T08:58:51.471Z,3.28
2022-12-26T09:01:25.415Z,3.75
2022-12-26T09:03:54.097Z,5.25
2022-12-26T09:06:21.624Z,7.38
2022-12-26T09:08:48.882Z,9.95
2022-12-26T09:11:23.469Z,3.70
2022-12-26T09:13:50.248Z,4.13
2022-12-26T09:16:23.857Z,4.20
2022-12-26T09:18:55.268Z,6.68
2022-12-26T09:21:23.048Z,4.50
2022-12-26T09:23:50.025Z,4.32
2022-12-26T09:26:19.419Z,2.80
2022-12-26T09:28:47.257Z,2.97
2022-12-26T09:31:17.547Z,6.63
2022-12-26T09:33:44.809Z,4.47
2022-12-26T09:36:15.400Z,5.00
2022-12-26T09:38:44.146Z,3.75
2022-12-26T09:41:20.706Z,6.03
2022-12-26T09:43:50.589Z,6.93
2022-12-26T09:46:21.605Z,7.10
2022-12-26T09:48:59.814Z,6.22
2022-12-26T09:51:29.336Z,5.95
2022-12-26T09:53:57.226Z,5.80
2022-12-26T09:59:19.805Z,4.82
2022-12-26T10:01:49.351Z,4.70
2022-12-26T10:04:34.622Z,4.07
2022-12-26T10:07:26.936Z,6.38
2022-12-26T10:10:20.773Z,14.20
2022-12-26T10:13:00.746Z,5.32
2022-12-26T10:15:30.631Z,5.05
2022-12-26T10:18:05.989Z,5.25
2022-12-26T10:20:54.382Z,6.35
2022-12-26T10:23:31.627Z,3.88
2022-12-26T10:26:09.959Z,4.97
2022-12-26T10:28:49.622Z,6.53
2022-12-26T10:31:32.650Z,4.03
2022-12-26T10:34:29.139Z,3.95
2022-12-26T10:37:02.153Z,4.20
2022-12-26T10:39:33.440Z,6.75
2022-12-26T10:42:11.748Z,3.97
2022-12-26T10:44:40.673Z,6.95
2022-12-26T10:47:23.752Z,5.05
2022-12-26T10:49:50.854Z,5.53
2022-12-26T10:52:21.333Z,4.85
2022-12-26T10:55:29.207Z,5.53
2022-12-26T10:57:42.838Z,3.33
2022-12-26T11:00:22.340Z,2.88
2022-12-26T11:03:08.937Z,3.97
2022-12-26T11:11:22.906Z,5.55
2022-12-26T11:14:02.289Z,3.55
2022-12-26T11:16:35.143Z,3.42
2022-12-26T11:19:02.732Z,3.80
2022-12-26T11:21:32.371Z,3.47
2022-12-26T11:24:20.332Z,5.65
2022-12-26T11:26:47.402Z,10.85
2022-12-26T11:29:18.365Z,14.60
2022-12-26T11:32:00.586Z,13.70
2022-12-26T11:34:37.494Z,9.73
2022-12-26T11:37:06.582Z,7.10
2022-12-26T11:39:36.161Z,8.02
2022-12-26T11:42:23.571Z,4.28
2022-12-26T11:44:52.753Z,3.92
2022-12-26T11:47:27.231Z,4.15
2022-12-26T11:50:01.862Z,3.88
2022-12-26T11:52:45.720Z,2.72
2022-12-26T11:55:27.880Z,5.22
2022-12-26T11:58:06.914Z,3.97
2022-12-26T12:00:39.310Z,6.15
2022-12-26T12:03:29.143Z,4.70
2022-12-26T12:06:07.908Z,3.55
2022-12-26T12:08:49.798Z,6.28
2022-12-26T12:11:42.789Z,4.57
2022-12-26T12:14:35.374Z,3.08
2022-12-26T12:17:22.981Z,5.25
2022-12-26T12:19:55.577Z,3.80
2022-12-26T12:22:50.170Z,3.85
2022-12-26T12:25:28.876Z,5.35
2022-12-26T12:28:01.543Z,2.55
2022-12-26T12:30:42.213Z,1.98
2022-12-26T12:33:19.642Z,5.00
2022-12-26T12:36:01.505Z,4.78
2022-12-26T12:39:00.241Z,3.35
2022-12-26T12:41:56.640Z,5.72
2022-12-26T12:45:04.192Z,5.45
2022-12-26T12:47:36.919Z,7.03
2022-12-26T12:50:23.783Z,5.45
2022-12-26T12:53:34.020Z,4.20
2022-12-26T12:56:20.443Z,4.10
2022-12-26T12:59:04.603Z,4.93
2022-12-26T13:01:38.591Z,4.90
2022-12-26T13:04:26.934Z,3.03
2022-12-26T13:07:12.466Z,2.28
2022-12-26T13:09:51.550Z,3.80
2022-12-26T13:12:39.980Z,2.47
2022-12-26T13:15:31.254Z,4.30
2022-12-26T13:18:05.975Z,8.85
2022-12-26T13:20:46.676Z,10.07
2022-12-26T13:23:46.495Z,5.15
2022-12-26T13:26:19.223Z,9.63
2022-12-26T13:29:03.235Z,4.93
2022-12-26T13:31:38.014Z,5.65
2022-12-26T13:34:09.900Z,4.80
2022-12-26T13:36:42.588Z,6.88
2022-12-26T13:39:12.198Z,6.68
2022-12-26T13:42:08.536Z,7.43
2022-12-26T13:44:35.295Z,7.25
2022-12-26T13:47:02.429Z,4.53
2022-12-26T13:49:39.861Z,4.68
2022-12-26T13:52:12.537Z,2.10
2022-12-26T13:54:48.165Z,4.00
2022-12-26T13:57:45.127Z,3.75
2022-12-26T14:00:23.951Z,3.78
2022-12-26T14:03:20.861Z,2.92
2022-12-26T14:06:04.359Z,5.43
2022-12-26T14:09:11.212Z,3.30
2022-12-26T14:11:50.114Z,4.35
2022-12-26T14:14:56.792Z,9.82
2022-12-26T14:17:57.869Z,3.42
2022-12-26T14:20:42.744Z,3.13
2022-12-26T14:23:42.811Z,6.60
2022-12-26T14:26:39.934Z,6.53
2022-12-26T14:29:31.602Z,6.40
2022-12-26T14:32:36.353Z,5.28
2022-12-26T14:35:24.608Z,4.75
2022-12-26T14:38:22.218Z,4.47
2022-12-26T14:41:30.912Z,4.97
2022-12-26T14:43:58.194Z,6.38
2022-12-26T14:46:31.350Z,3.40
2022-12-26T14:49:01.108Z,3.63
2022-12-26T14:51:31.977Z,9.50
2022-12-26T14:54:25.678Z,5.25
2022-12-26T14:59:19.495Z,3.45
2022-12-26T15:02:00.818Z,3.83
2022-12-26T15:04:45.940Z,2.17
2022-12-26T15:07:38.726Z,4.90
2022-12-26T15:10:30.397Z,4.20
2022-12-26T15:13:18.873Z,7.13
2022-12-26T15:16:07.114Z,3.15
2022-12-26T15:18:55.839Z,4.13
2022-12-26T15:21:43.698Z,3.47
2022-12-26T15:24:52.426Z,2.25
2022-12-26T15:27:20.936Z,3.88
2022-12-26T15:29:50.563Z,4.03
2022-12-26T15:32:24.943Z,5.70
2022-12-26T15:35:07.603Z,4.15
2022-12-26T15:37:45.720Z,5.13
2022-12-26T15:40:22.727Z,7.55
2022-12-26T15:43:26.922Z,6.15
2022-12-26T15:46:41.816Z,6.32
2022-12-26T15:49:33.597Z,4.22
2022-12-26T15:52:04.349Z,6.43
2022-12-26T15:54:55.267Z,5.53
2022-12-26T15:57:44.466Z,5.38
2022-12-26T16:00:17.711Z,4.78
2022-12-26T16:03:21.361Z,5.10
2022-12-26T16:06:01.814Z,4.07
2022-12-26T16:08:37.588Z,8.43
2022-12-26T16:11:15.323Z,2.80
2022-12-26T16:14:00.690Z,6.18
2022-12-26T16:16:38.657Z,3.22
2022-12-26T16:19:27.888Z,2.85
2022-12-26T16:22:19.652Z,3.53
2022-12-26T16:24:48.273Z,3.80
2022-12-26T16:27:19.115Z,5.03
2022-12-26T16:30:11.294Z,7.68
2022-12-26T16:32:41.739Z,6.53
2022-12-26T16:35:22.118Z,7.40
2022-12-26T16:37:50.941Z,5.10
2022-12-26T16:40:39.172Z,7.78
2022-12-26T16:43:18.065Z,8.13
2022-12-26T16:45:47.644Z,9.15
2022-12-26T16:48:17.069Z,13.63
2022-12-26T16:50:53.082Z,9.88
2022-12-26T16:53:23.297Z,8.85
2022-12-26T16:55:51.571Z,9.73
2022-12-26T16:58:31.304Z,9.77
2022-12-26T17:01:07.330Z,7.75
2022-12-26T17:03:47.999Z,8.43
2022-12-26T17:06:36.921Z,11.63
2022-12-26T17:09:16.871Z,12.02
2022-12-26T17:11:59.406Z,10.07
2022-12-26T17:14:30.802Z,10.02
2022-12-26T17:17:07.526Z,13.57
2022-12-26T17:19:36.603Z,9.73
2022-12-26T17:22:15.276Z,10.85
2022-12-26T17:24:43.024Z,11.77
2022-12-26T17:27:35.926Z,12.60
2022-12-26T17:30:30.570Z,10.70
2022-12-26T17:33:03.826Z,11.00
2022-12-26T17:36:21.348Z,11.52
2022-12-26T17:38:24.856Z,10.07
2022-12-26T17:41:01.760Z,10.70
2022-12-26T17:43:37.905Z,20.42
2022-12-26T17:46:06.696Z,14.43
2022-12-26T17:48:34.227Z,18.65
2022-12-26T17:51:05.624Z,13.43
2022-12-26T17:53:35.156Z,14.15
2022-12-26T17:56:05.300Z,16.30
2022-12-26T17:58:33.098Z,16.17
2022-12-26T18:01:00.995Z,12.23
2022-12-26T18:03:28.098Z,11.23
2022-12-26T18:05:56.552Z,9.65
2022-12-26T18:08:38.994Z,17.65
2022-12-26T18:11:09.190Z,15.20
2022-12-26T18:13:36.381Z,15.63
2022-12-26T18:16:04.419Z,16.83
2022-12-26T18:18:43.175Z,15.98
2022-12-26T18:21:12.194Z,22.67
2022-12-26T18:23:39.823Z,15.73
2022-12-26T18:26:20.672Z,13.65
2022-12-26T18:28:49.175Z,11.23
2022-12-26T18:31:16.664Z,21.33
2022-12-26T18:33:43.456Z,12.63
2022-12-26T18:36:14.807Z,14.32
2022-12-26T18:38:41.845Z,15.23
2022-12-26T18:41:14.004Z,9.80
2022-12-26T18:43:40.709Z,12.00
2022-12-26T18:46:24.614Z,11.93
2022-12-26T18:48:54.062Z,16.65
2022-12-26T18:51:21.681Z,11.98
2022-12-26T18:53:48.449Z,10.15
2022-12-26T18:56:20.911Z,10.18
2022-12-26T18:58:53.934Z,9.30
2022-12-26T19:01:30.305Z,8.80
2022-12-26T19:03:58.417Z,14.43
2022-12-26T19:06:28.129Z,12.98
2022-12-26T19:08:56.490Z,13.55
2022-12-26T19:11:23.704Z,13.65
2022-12-26T19:13:50.916Z,10.65
2022-12-26T19:16:17.627Z,11.35
2022-12-26T19:18:44.624Z,10.63
2022-12-26T19:21:16.274Z,8.43
2022-12-26T19:23:47.549Z,9.27
2022-12-26T19:26:19.197Z,10.27
2022-12-26T19:28:51.266Z,13.20
2022-12-26T19:31:18.085Z,12.98
2022-12-26T19:33:44.803Z,6.72
2022-12-26T19:36:11.996Z,4.03
2022-12-26T19:38:38.754Z,2.45
2022-12-26T19:41:09.811Z,3.70
2022-12-26T19:43:36.825Z,4.97
2022-12-26T19:46:06.720Z,3.25
2022-12-26T19:48:36.762Z,4.18
2022-12-26T19:51:06.630Z,4.28
2022-12-26T19:53:34.584Z,4.47
2022-12-26T19:56:07.324Z,3.47
2022-12-26T19:58:34.038Z,2.60
2022-12-26T20:01:08.134Z,4.10
2022-12-26T20:03:36.144Z,4.65
2022-12-26T20:06:14.497Z,4.43
2022-12-26T20:08:42.216Z,3.05
2022-12-26T20:11:14.819Z,2.90
2022-12-26T20:13:43.097Z,3.45
2022-12-26T20:16:37.379Z,2.22
2022-12-26T20:19:00.487Z,3.45
2022-12-26T20:21:27.263Z,1.73
2022-12-26T20:23:54.007Z,2.08
2022-12-26T20:26:23.219Z,5.28
2022-12-26T20:28:50.547Z,4.95
2022-12-26T20:31:20.994Z,6.75
2022-12-26T20:33:50.985Z,4.30
2022-12-26T20:36:23.387Z,8.70
2022-12-26T20:38:51.947Z,3.63
2022-12-26T20:41:18.944Z,6.55
2022-12-26T20:43:45.755Z,5.20
2022-12-26T20:46:18.892Z,4.43
2022-12-26T20:51:18.221Z,4.53
2022-12-26T20:53:45.550Z,6.67
2022-12-26T20:56:12.780Z,4.20
2022-12-26T20:58:39.502Z,2.92
2022-12-26T21:01:18.476Z,4.70
2022-12-26T21:03:45.873Z,3.75
2022-12-26T21:06:18.681Z,3.00
2022-12-26T21:08:49.039Z,5.57
2022-12-26T21:11:19.406Z,5.20
2022-12-26T21:13:48.136Z,6.32
2022-12-26T21:16:14.949Z,4.22
2022-12-26T21:18:42.303Z,3.78
2022-12-26T21:21:12.517Z,2.75
2022-12-26T21:23:39.478Z,4.70
2022-12-26T21:26:07.140Z,4.30
2022-12-26T21:28:35.075Z,2.10
2022-12-26T21:31:02.914Z,2.03
2022-12-26T21:33:30.933Z,2.03
2022-12-26T21:35:57.979Z,2.47
2022-12-26T21:38:28.752Z,3.72
2022-12-26T21:40:56.134Z,2.30
2022-12-26T21:43:22.886Z,2.67
2022-12-26T21:45:49.665Z,3.90
2022-12-26T21:48:16.651Z,4.00
2022-12-26T21:50:46.173Z,5.00
2022-12-26T21:53:12.844Z,4.22
2022-12-26T21:55:39.585Z,3.75
2022-12-26T21:58:07.653Z,5.07
2022-12-26T22:00:35.558Z,3.47
2022-12-26T22:03:22.097Z,4.63
2022-12-26T22:05:49.025Z,3.65
2022-12-26T22:08:16.022Z,3.72
2022-12-26T22:11:03.688Z,4.70
2022-12-26T22:13:37.034Z,3.42
2022-12-26T22:16:09.712Z,3.38
2022-12-26T22:18:40.749Z,3.67
2022-12-26T22:21:10.462Z,4.57
2022-12-26T22:23:38.732Z,4.60
2022-12-26T22:26:06.472Z,4.65
2022-12-26T22:28:33.806Z,3.92
2022-12-26T22:31:01.620Z,4.03
2022-12-26T22:33:29.040Z,3.80
2022-12-26T22:35:56.274Z,5.72
2022-12-26T22:38:23.683Z,3.50
2022-12-26T22:40:56.283Z,4.03
2022-12-26T22:43:24.243Z,6.30
2022-12-26T22:45:51.848Z,7.47
2022-12-26T22:48:19.128Z,4.68
2022-12-26T22:50:48.248Z,3.58
2022-12-26T22:53:15.022Z,4.65
2022-12-26T22:55:50.609Z,3.72
2022-12-26T22:58:19.126Z,3.35
2022-12-26T23:00:46.694Z,4.00
2022-12-26T23:03:14.774Z,4.63
2022-12-26T23:05:42.187Z,4.10
2022-12-26T23:08:14.349Z,4.55
2022-12-26T23:10:42.585Z,5.75
2022-12-26T23:13:13.889Z,5.90
2022-12-26T23:15:54.075Z,3.50
2022-12-26T23:19:02.565Z,4.90
2022-12-26T23:21:40.055Z,3.95
2022-12-26T23:24:10.171Z,4.65
2022-12-26T23:26:36.825Z,2.65
2022-12-26T23:29:23.000Z,4.05
2022-12-26T23:31:49.747Z,5.15
2022-12-26T23:34:16.484Z,5.47
2022-12-26T23:36:43.210Z,7.57
2022-12-26T23:39:09.908Z,6.50
2022-12-26T23:41:36.579Z,3.63
2022-12-26T23:44:03.743Z,4.22
2022-12-26T23:46:30.466Z,4.65
2022-12-26T23:48:57.193Z,6.85
2022-12-26T23:51:24.085Z,5.38
2022-12-26T23:53:50.872Z,6.55
2022-12-26T23:56:17.587Z,2.70
2022-12-26T23:58:44.690Z,1.88
